Time;durP1;ratioP1;P1;durP2;ratioP2;P2;SDS_P1;SDS_P2;PMS_P1;PMS_P2;Temp;Humidity;BMP_temperature;BMP_pressure;BME280_temperature;BME280_humidity;BME280_pressure;Samples;Min_cycle;Max_cycle;Signal;HPM_P1;HPM_P2
2022/09/19 00:01:14;;;;;;;6.25;1.63;;;10.30;99.90;;;;;;5068527;28;20104;-60
2022/09/19 00:03:42;;;;;;;2.80;1.38;;;10.30;99.90;;;;;;5048381;28;20454;-60
2022/09/19 00:06:09;;;;;;;2.20;1.40;;;10.30;99.90;;;;;;5048909;28;20201;-60
2022/09/19 00:08:37;;;;;;;3.70;1.73;;;10.30;99.90;;;;;;5057946;28;20079;-60
2022/09/19 00:11:04;;;;;;;1.25;0.90;;;10.30;99.90;;;;;;5072541;28;20020;-60
2022/09/19 00:13:30;;;;;;;0.98;0.82;;;10.30;99.90;;;;;;5059667;28;20032;-60
2022/09/19 00:15:56;;;;;;;4.45;1.10;;;10.30;99.90;;;;;;5053144;28;20036;-60
2022/09/19 00:18:22;;;;;;;3.50;1.38;;;10.30;99.90;;;;;;5061564;28;20103;-60
2022/09/19 00:20:49;;;;;;;3.70;1.27;;;10.30;99.90;;;;;;5071943;28;20485;-59
2022/09/19 00:26:08;;;;;;;1.92;1.20;;;10.30;99.90;;;;;;5062028;28;20048;-59
2022/09/19 00:28:34;;;;;;;3.75;1.30;;;10.30;99.90;;;;;;5050452;28;20123;-60
2022/09/19 00:31:01;;;;;;;2.17;1.20;;;10.30;99.90;;;;;;5053036;28;20029;-60
2022/09/19 00:33:30;;;;;;;4.55;1.25;;;10.30;99.90;;;;;;5061170;28;20045;-60
2022/09/19 00:35:57;;;;;;;2.85;1.40;;;10.30;99.90;;;;;;5071940;28;20076;-60
2022/09/19 00:38:28;;;;;;;2.20;1.15;;;10.30;99.90;;;;;;5057683;28;20476;-60
2022/09/19 00:40:55;;;;;;;3.92;1.13;;;10.30;99.90;;;;;;5032576;28;20044;-60
2022/09/19 00:43:22;;;;;;;7.95;1.40;;;10.30;99.90;;;;;;5069392;28;20021;-60
2022/09/19 00:45:48;;;;;;;3.97;1.30;;;10.30;99.90;;;;;;5052525;28;20033;-60
2022/09/19 00:48:16;;;;;;;4.13;1.30;;;10.30;99.90;;;;;;5069591;28;20090;-59
2022/09/19 00:50:45;;;;;;;2.15;1.25;;;10.30;99.90;;;;;;5072235;28;20081;-59
2022/09/19 00:53:15;;;;;;;2.85;1.38;;;10.30;99.90;;;;;;5050222;28;20021;-60
2022/09/19 00:55:41;;;;;;;3.50;1.50;;;10.30;99.90;;;;;;5052039;28;20025;-60
2022/09/19 00:58:13;;;;;;;5.53;1.63;;;10.30;99.90;;;;;;5069515;28;20032;-59
2022/09/19 01:00:39;;;;;;;1.83;1.50;;;10.30;99.90;;;;;;5071832;28;20077;-60
2022/09/19 01:03:09;;;;;;;3.80;1.70;;;10.30;99.90;;;;;;5055525;28;20100;-59
2022/09/19 01:06:00;;;;;;;4.25;1.45;;;10.30;99.90;;;;;;5071961;28;20101;-59
2022/09/19 01:08:52;;;;;;;5.93;1.70;;;10.30;99.90;;;;;;5044207;28;20033;-60
2022/09/19 01:11:40;;;;;;;4.15;1.90;;;10.30;99.90;;;;;;5030685;28;20075;-60
2022/09/19 01:14:39;;;;;;;5.43;2.17;;;10.30;99.90;;;;;;5042918;28;20029;-60
2022/09/19 01:17:19;;;;;;;2.53;1.70;;;10.20;99.90;;;;;;5031945;28;20041;-60
2022/09/19 01:20:12;;;;;;;2.67;1.35;;;10.20;99.90;;;;;;5047548;28;20100;-60
2022/09/19 01:23:02;;;;;;;2.42;1.60;;;10.20;99.90;;;;;;5031071;28;20104;-58
2022/09/19 01:25:45;;;;;;;4.53;1.83;;;10.10;99.90;;;;;;5051522;28;20532;-60
2022/09/19 01:28:21;;;;;;;2.00;1.60;;;10.20;99.90;;;;;;5038714;28;20025;-59
2022/09/19 01:31:16;;;;;;;5.07;1.58;;;10.20;99.90;;;;;;5071524;28;20064;-59
2022/09/19 01:33:44;;;;;;;2.80;1.73;;;10.20;99.90;;;;;;5047557;28;20111;-60
2022/09/19 01:36:14;;;;;;;5.45;1.67;;;10.20;99.90;;;;;;5051247;28;20123;-59
2022/09/19 01:38:43;;;;;;;3.97;1.85;;;10.10;99.90;;;;;;5046985;28;20111;-59
2022/09/19 01:41:10;;;;;;;2.85;1.42;;;10.10;99.90;;;;;;5051390;28;20443;-59
2022/09/19 01:43:36;;;;;;;5.32;1.70;;;10.10;99.90;;;;;;5060587;28;20025;-60
2022/09/19 01:46:37;;;;;;;3.67;1.38;;;10.10;99.90;;;;;;5070567;28;20518;-60
2022/09/19 01:49:14;;;;;;;4.20;1.85;;;10.10;99.90;;;;;;5041177;28;20067;-60
2022/09/19 01:51:47;;;;;;;2.45;1.98;;;10.10;99.90;;;;;;5031443;28;20045;-60
2022/09/19 01:54:30;;;;;;;3.38;1.70;;;10.10;99.90;;;;;;5042376;28;20400;-60
2022/09/19 01:57:21;;;;;;;2.80;1.63;;;10.10;99.90;;;;;;5031145;28;20115;-60
2022/09/19 01:59:49;;;;;;;4.18;2.20;;;10.10;99.90;;;;;;5046645;28;20393;-60
2022/09/19 02:02:46;;;;;;;4.32;1.60;;;10.10;99.90;;;;;;5070061;28;20088;-60
2022/09/19 02:05:27;;;;;;;4.70;1.80;;;10.10;99.90;;;;;;5031105;28;20026;-60
2022/09/19 02:08:16;;;;;;;3.63;1.80;;;10.10;99.90;;;;;;5030258;28;20117;-59
2022/09/19 02:11:04;;;;;;;3.60;1.60;;;10.10;99.90;;;;;;5070882;28;20025;-59
2022/09/19 02:13:33;;;;;;;3.08;1.60;;;10.10;99.90;;;;;;5041742;28;20025;-60
2022/09/19 02:16:09;;;;;;;1.20;1.10;;;10.10;99.90;;;;;;5070690;28;20037;-59
2022/09/19 02:18:45;;;;;;;3.30;1.80;;;10.10;99.90;;;;;;5042688;28;20027;-59
2022/09/19 02:21:18;;;;;;;2.17;1.75;;;10.10;99.90;;;;;;5070719;28;20257;-59
2022/09/19 02:23:49;;;;;;;2.45;1.40;;;10.10;99.90;;;;;;5038611;28;20040;-60
2022/09/19 02:26:20;;;;;;;1.80;1.40;;;10.10;99.90;;;;;;5030642;28;20033;-60
2022/09/19 02:28:54;;;;;;;3.45;1.33;;;10.10;99.90;;;;;;5044995;28;20025;-60
2022/09/19 02:31:24;;;;;;;4.13;1.70;;;10.10;99.90;;;;;;5029331;28;20587;-60
2022/09/19 02:33:50;;;;;;;4.97;1.80;;;10.00;99.90;;;;;;5045676;28;20488;-59
2022/09/19 02:36:42;;;;;;;2.70;1.55;;;10.10;99.90;;;;;;5049073;28;20041;-60
2022/09/19 02:39:36;;;;;;;2.30;1.10;;;10.10;99.90;;;;;;5068370;28;20104;-59
2022/09/19 02:42:20;;;;;;;5.55;1.85;;;10.00;99.90;;;;;;5029089;28;20033;-59
2022/09/19 02:45:11;;;;;;;3.35;2.22;;;10.00;99.90;;;;;;5044448;28;20049;-60
2022/09/19 02:47:52;;;;;;;5.18;1.77;;;10.00;99.90;;;;;;5030268;28;20033;-60
2022/09/19 02:50:58;;;;;;;2.92;1.63;;;9.90;99.90;;;;;;5030337;28;20060;-59
2022/09/19 02:53:29;;;;;;;5.07;2.78;;;9.90;99.90;;;;;;5033598;28;20100;-59
2022/09/19 02:55:59;;;;;;;2.75;2.08;;;9.90;99.90;;;;;;5069868;28;20436;-60
2022/09/19 02:58:29;;;;;;;4.82;2.80;;;9.90;99.90;;;;;;5037239;28;20024;-60
2022/09/19 03:01:00;;;;;;;2.85;2.00;;;9.80;99.90;;;;;;5069371;28;20024;-59
2022/09/19 03:06:18;;;;;;;6.47;2.60;;;9.80;99.90;;;;;;5069636;28;20428;-59
2022/09/19 03:08:46;;;;;;;7.13;2.83;;;9.80;99.90;;;;;;5054602;28;20039;-59
2022/09/19 03:11:16;;;;;;;7.13;2.63;;;9.80;99.90;;;;;;5069662;28;20020;-63
2022/09/19 03:13:42;;;;;;;5.78;2.22;;;9.80;99.90;;;;;;5040523;28;20033;-60
2022/09/19 03:16:15;;;;;;;5.38;2.85;;;9.80;99.90;;;;;;5069294;28;20055;-59
2022/09/19 03:18:46;;;;;;;10.23;2.95;;;9.90;99.90;;;;;;5053492;28;20488;-60
2022/09/19 03:21:12;;;;;;;3.92;2.63;;;9.90;99.90;;;;;;5069466;28;20145;-60
2022/09/19 03:23:44;;;;;;;6.53;2.67;;;9.80;99.90;;;;;;5047955;28;20032;-60
2022/09/19 03:26:20;;;;;;;3.70;2.53;;;9.90;99.90;;;;;;5068944;28;20020;-60
2022/09/19 03:28:46;;;;;;;5.47;2.28;;;9.90;99.90;;;;;;5040487;28;20037;-60
2022/09/19 03:31:12;;;;;;;4.18;2.80;;;9.90;99.90;;;;;;5069200;28;20156;-60
2022/09/19 03:33:39;;;;;;;4.78;2.80;;;9.80;99.90;;;;;;5053035;28;20111;-64
2022/09/19 03:36:08;;;;;;;3.65;2.75;;;9.80;99.90;;;;;;5068914;28;20041;-63
2022/09/19 03:38:35;;;;;;;7.20;3.58;;;9.80;99.90;;;;;;5051708;28;20012;-64
2022/09/19 03:41:01;;;;;;;4.82;3.30;;;9.70;99.90;;;;;;5068956;28;20511;-63
2022/09/19 03:43:29;;;;;;;7.10;3.35;;;9.70;99.90;;;;;;5049251;28;20024;-63
2022/09/19 03:45:56;;;;;;;3.45;2.65;;;9.70;99.90;;;;;;5069084;28;20499;-64
2022/09/19 03:48:22;;;;;;;5.85;2.90;;;9.70;99.90;;;;;;5050014;28;20473;-63
2022/09/19 03:50:48;;;;;;;5.72;2.80;;;9.70;99.90;;;;;;5068981;28;20388;-63
2022/09/19 03:53:14;;;;;;;8.35;3.92;;;9.70;99.90;;;;;;5048793;28;20017;-63
2022/09/19 03:55:41;;;;;;;6.30;2.88;;;9.70;99.90;;;;;;5068997;28;20028;-63
2022/09/19 03:58:07;;;;;;;4.43;2.83;;;9.70;99.90;;;;;;5047659;28;20394;-63
2022/09/19 04:00:33;;;;;;;6.13;2.70;;;9.70;99.90;;;;;;5068977;28;20017;-63
2022/09/19 04:02:58;;;;;;;4.07;2.55;;;9.70;99.90;;;;;;5049475;28;20526;-63
2022/09/19 04:05:23;;;;;;;4.32;2.67;;;9.70;99.90;;;;;;5045395;28;20044;-63
2022/09/19 04:07:50;;;;;;;4.28;2.53;;;9.70;99.90;;;;;;5048742;28;20064;-63
2022/09/19 04:10:15;;;;;;;6.45;2.80;;;9.70;99.90;;;;;;5049091;28;20028;-63
2022/09/19 04:12:41;;;;;;;4.25;2.70;;;9.70;99.90;;;;;;5068428;28;20494;-63
2022/09/19 04:15:07;;;;;;;5.00;2.88;;;9.80;99.90;;;;;;5047805;28;20033;-63
2022/09/19 04:17:33;;;;;;;5.63;3.45;;;9.80;99.90;;;;;;5060717;28;20045;-63
2022/09/19 04:19:59;;;;;;;5.30;2.90;;;9.70;99.90;;;;;;5045860;28;20033;-63
2022/09/19 04:22:24;;;;;;;7.07;3.45;;;9.80;99.90;;;;;;5068209;28;20036;-62
2022/09/19 04:24:51;;;;;;;5.07;2.92;;;9.80;99.90;;;;;;5042168;28;20108;-63
2022/09/19 04:27:17;;;;;;;5.75;2.80;;;9.80;99.90;;;;;;5068349;28;20062;-63
2022/09/19 04:29:42;;;;;;;3.88;2.58;;;9.80;99.90;;;;;;5047602;28;20032;-63
2022/09/19 04:32:08;;;;;;;8.52;3.17;;;9.80;99.90;;;;;;5068188;28;20032;-63
2022/09/19 04:34:34;;;;;;;7.40;3.70;;;9.80;99.90;;;;;;5052915;28;20048;-62
2022/09/19 04:37:03;;;;;;;6.22;3.63;;;9.90;99.90;;;;;;5068555;28;20037;-64
2022/09/19 04:39:29;;;;;;;5.50;2.88;;;9.80;99.90;;;;;;5057482;28;20032;-63
2022/09/19 04:41:55;;;;;;;4.03;3.17;;;9.80;99.90;;;;;;5048916;28;20497;-63
2022/09/19 04:44:21;;;;;;;6.97;2.80;;;9.80;99.90;;;;;;5066156;28;20082;-63
2022/09/19 04:46:50;;;;;;;6.65;3.40;;;9.90;99.90;;;;;;5049149;28;20481;-63
2022/09/19 04:49:16;;;;;;;4.55;3.20;;;9.90;99.90;;;;;;5058182;28;20163;-64
2022/09/19 04:51:42;;;;;;;6.68;3.78;;;9.90;99.90;;;;;;5047998;28;20466;-64
2022/09/19 04:54:09;;;;;;;7.18;3.60;;;9.90;99.90;;;;;;5066169;28;20036;-63
2022/09/19 04:56:34;;;;;;;6.13;3.40;;;9.90;99.90;;;;;;5071778;28;20086;-64
2022/09/19 04:59:00;;;;;;;7.57;4.07;;;9.90;99.90;;;;;;5056906;28;20037;-64
2022/09/19 05:01:26;;;;;;;3.75;2.97;;;10.00;99.90;;;;;;5072345;28;20025;-63
2022/09/19 05:03:52;;;;;;;7.35;3.90;;;10.00;99.90;;;;;;5055218;28;20082;-63
2022/09/19 05:06:18;;;;;;;7.97;3.30;;;10.00;99.90;;;;;;5072240;28;20028;-63
2022/09/19 05:08:43;;;;;;;6.03;3.00;;;10.00;99.90;;;;;;5054047;28;20044;-63
2022/09/19 05:11:09;;;;;;;4.28;2.90;;;10.00;99.90;;;;;;5072082;28;20460;-62
2022/09/19 05:13:40;;;;;;;10.02;3.67;;;10.00;99.90;;;;;;5052632;28;20033;-62
2022/09/19 05:16:07;;;;;;;6.03;3.13;;;10.00;99.90;;;;;;5071889;28;20043;-63
2022/09/19 05:18:35;;;;;;;5.32;2.90;;;10.10;99.90;;;;;;5051979;28;20052;-62
2022/09/19 05:21:10;;;;;;;4.03;2.92;;;10.10;99.90;;;;;;5071873;28;20476;-62
2022/09/19 05:23:37;;;;;;;4.13;2.80;;;10.10;99.90;;;;;;5040532;28;20021;-62
2022/09/19 05:26:08;;;;;;;7.72;3.38;;;10.20;99.90;;;;;;5051685;28;20721;-62
2022/09/19 05:28:34;;;;;;;6.53;3.60;;;10.20;99.90;;;;;;5032479;28;20036;-63
2022/09/19 05:31:04;;;;;;;4.68;3.33;;;10.20;99.90;;;;;;5071097;28;20507;-63
2022/09/19 05:33:30;;;;;;;5.30;2.80;;;10.30;99.90;;;;;;5051711;28;20646;-63
2022/09/19 05:35:59;;;;;;;4.25;3.35;;;10.30;99.90;;;;;;5051279;28;20444;-63
2022/09/19 05:38:24;;;;;;;5.13;3.45;;;10.40;99.90;;;;;;5052711;28;20103;-62
2022/09/19 05:40:52;;;;;;;5.25;3.13;;;10.40;99.90;;;;;;5061213;28;20029;-63
2022/09/19 05:43:17;;;;;;;4.43;2.95;;;10.40;99.90;;;;;;5069516;28;20020;-64
2022/09/19 05:45:43;;;;;;;7.47;3.33;;;10.40;99.90;;;;;;5048618;28;20039;-64
2022/09/19 05:48:08;;;;;;;4.57;3.40;;;10.50;99.90;;;;;;5069402;28;20036;-64
2022/09/19 05:50:34;;;;;;;6.72;3.30;;;10.50;99.90;;;;;;5047852;28;20032;-63
2022/09/19 05:55:45;;;;;;;6.05;3.30;;;10.60;99.90;;;;;;5045950;28;20060;-64
2022/09/19 05:58:12;;;;;;;5.28;3.50;;;10.70;99.90;;;;;;5049691;28;20155;-64
2022/09/19 06:00:38;;;;;;;3.80;3.22;;;10.70;99.90;;;;;;5047749;28;20032;-64
2022/09/19 06:03:06;;;;;;;5.88;2.53;;;10.70;99.90;;;;;;5060005;28;20025;-64
2022/09/19 06:05:38;;;;;;;4.80;3.17;;;10.70;99.90;;;;;;5047566;28;20033;-63
2022/09/19 06:08:07;;;;;;;2.78;2.30;;;10.70;99.90;;;;;;5029437;28;20478;-65
2022/09/19 06:10:35;;;;;;;4.43;2.83;;;10.80;99.90;;;;;;5050516;28;20082;-64
2022/09/19 06:13:01;;;;;;;5.07;3.28;;;10.80;99.90;;;;;;5069219;28;20492;-64
2022/09/19 06:15:26;;;;;;;4.82;2.70;;;10.80;99.90;;;;;;5048176;28;20094;-64
2022/09/19 06:17:55;;;;;;;4.05;3.00;;;10.90;99.90;;;;;;5068879;28;20032;-64
2022/09/19 06:20:21;;;;;;;4.32;3.60;;;10.90;99.90;;;;;;5047958;28;20025;-64
2022/09/19 06:22:47;;;;;;;5.85;3.15;;;10.90;99.90;;;;;;5061124;28;20035;-56
2022/09/19 06:25:13;;;;;;;5.25;3.60;;;10.90;99.90;;;;;;5061303;28;20459;-64
2022/09/19 06:27:41;;;;;;;7.03;3.38;;;10.90;99.90;;;;;;5049764;28;20178;-64
2022/09/19 06:30:07;;;;;;;4.55;3.30;;;11.00;99.90;;;;;;5054332;28;20108;-64
2022/09/19 06:32:33;;;;;;;5.70;3.38;;;11.00;99.90;;;;;;5068243;28;20024;-64
2022/09/19 06:34:59;;;;;;;5.50;3.80;;;11.00;99.90;;;;;;5047837;28;20051;-64
2022/09/19 06:37:24;;;;;;;5.10;3.50;;;11.00;99.90;;;;;;5068159;28;20032;-64
2022/09/19 06:39:50;;;;;;;3.92;3.45;;;11.00;99.90;;;;;;5047708;28;20057;-65
2022/09/19 06:42:15;;;;;;;6.30;3.33;;;11.00;99.90;;;;;;5067057;28;20093;-64
2022/09/19 06:44:41;;;;;;;5.88;3.92;;;11.10;99.90;;;;;;5056187;28;20035;-64
2022/09/19 06:47:06;;;;;;;4.45;3.45;;;11.10;99.90;;;;;;5049578;28;20040;-64
2022/09/19 06:49:33;;;;;;;8.05;4.30;;;11.10;99.90;;;;;;5066297;28;20404;-64
2022/09/19 06:51:58;;;;;;;5.88;4.72;;;11.10;99.90;;;;;;5056306;28;20389;-63
2022/09/19 06:54:24;;;;;;;5.40;4.25;;;11.10;99.90;;;;;;5067038;28;20033;-63
2022/09/19 06:56:51;;;;;;;7.80;3.78;;;11.10;99.90;;;;;;5069619;28;20078;-63
2022/09/19 06:59:18;;;;;;;6.75;4.95;;;11.10;99.90;;;;;;5048173;28;20056;-64
2022/09/19 07:01:45;;;;;;;6.63;3.58;;;11.20;99.90;;;;;;5049639;28;20033;-64
2022/09/19 07:04:10;;;;;;;5.97;3.88;;;11.20;99.90;;;;;;5065666;28;20087;-64
2022/09/19 07:06:36;;;;;;;5.90;3.47;;;11.20;99.90;;;;;;5069276;28;20024;-63
2022/09/19 07:09:03;;;;;;;6.25;3.92;;;11.30;99.90;;;;;;5050691;28;20047;-63
2022/09/19 07:11:29;;;;;;;5.00;3.70;;;11.30;99.90;;;;;;5069452;28;20047;-63
2022/09/19 07:13:54;;;;;;;5.10;3.47;;;11.30;99.90;;;;;;5049464;28;20478;-62
2022/09/19 07:16:20;;;;;;;5.68;3.97;;;11.30;99.90;;;;;;5069308;28;20423;-63
2022/09/19 07:18:45;;;;;;;6.47;4.47;;;11.30;99.90;;;;;;5047338;28;20029;-62
2022/09/19 07:21:11;;;;;;;6.95;3.60;;;11.40;99.90;;;;;;5069167;28;20020;-64
2022/09/19 07:23:37;;;;;;;3.92;2.92;;;11.50;99.90;;;;;;5054082;28;20021;-64
2022/09/19 07:26:03;;;;;;;6.10;3.92;;;11.50;99.90;;;;;;5048006;28;20036;-63
2022/09/19 07:28:28;;;;;;;5.40;3.38;;;11.50;99.90;;;;;;5068690;28;20024;-63
2022/09/19 07:30:56;;;;;;;5.82;3.35;;;11.60;99.90;;;;;;5047942;28;20438;-63
2022/09/19 07:33:23;;;;;;;4.70;2.85;;;11.60;99.90;;;;;;5068692;28;20111;-63
2022/09/19 07:35:51;;;;;;;5.45;3.05;;;11.80;99.90;;;;;;5047262;28;20041;-63
2022/09/19 07:38:20;;;;;;;5.25;3.38;;;11.90;99.90;;;;;;5068945;28;20048;-64
2022/09/19 07:40:46;;;;;;;4.40;2.58;;;12.00;99.90;;;;;;5045870;28;20075;-63
2022/09/19 07:43:13;;;;;;;5.20;2.80;;;12.10;99.90;;;;;;5068288;28;20024;-63
2022/09/19 07:45:48;;;;;;;4.55;2.15;;;12.20;99.90;;;;;;5047498;28;20036;-63
2022/09/19 07:48:15;;;;;;;4.25;2.53;;;12.20;99.90;;;;;;5028975;28;20083;-63
2022/09/19 07:50:41;;;;;;;7.57;2.85;;;12.30;99.90;;;;;;5050619;28;20029;-63
2022/09/19 07:53:15;;;;;;;2.38;2.00;;;12.30;99.90;;;;;;5068004;28;20128;-63
2022/09/19 07:55:42;;;;;;;3.03;2.15;;;12.40;99.90;;;;;;5046903;28;20037;-63
2022/09/19 07:58:10;;;;;;;5.50;2.22;;;12.50;99.90;;;;;;5066871;28;20036;-63
2022/09/19 08:00:36;;;;;;;3.97;1.90;;;12.60;99.90;;;;;;5047034;28;20028;-63
2022/09/19 08:03:04;;;;;;;2.58;1.92;;;12.60;99.90;;;;;;5068041;28;20024;-63
2022/09/19 08:05:34;;;;;;;5.45;1.95;;;12.70;99.90;;;;;;5046868;28;20076;-63
2022/09/19 08:08:00;;;;;;;2.60;1.30;;;12.70;99.90;;;;;;5068480;28;20145;-63
2022/09/19 08:10:26;;;;;;;3.22;1.50;;;12.80;99.90;;;;;;5047296;28;20033;-63
2022/09/19 08:12:52;;;;;;;1.75;1.35;;;12.90;99.90;;;;;;5067898;28;20038;-64
2022/09/19 08:15:18;;;;;;;1.92;1.42;;;13.20;99.90;;;;;;5047354;28;20104;-63
2022/09/19 08:18:05;;;;;;;2.70;1.13;;;13.40;99.90;;;;;;5067695;28;20037;-63
2022/09/19 08:20:33;;;;;;;1.38;1.23;;;13.60;99.90;;;;;;5047166;28;20064;-64
2022/09/19 08:23:01;;;;;;;2.83;1.63;;;13.80;99.90;;;;;;5057435;28;20068;-63
2022/09/19 08:25:30;;;;;;;1.52;1.05;;;13.90;99.90;;;;;;5057653;28;20021;-63
2022/09/19 08:27:56;;;;;;;1.80;1.08;;;14.00;99.90;;;;;;5048590;28;20393;-63
2022/09/19 08:30:22;;;;;;;0.88;0.80;;;14.00;99.90;;;;;;5057602;28;20033;-63
2022/09/19 08:32:49;;;;;;;2.25;0.80;;;14.00;99.90;;;;;;5071689;28;20052;-62
2022/09/19 08:35:20;;;;;;;3.42;1.00;;;14.00;99.90;;;;;;5060905;28;20509;-63
2022/09/19 08:37:46;;;;;;;2.45;1.00;;;14.10;99.90;;;;;;5032105;28;20036;-64
2022/09/19 08:40:32;;;;;;;1.30;0.60;;;14.10;99.90;;;;;;5068986;28;20032;-64
2022/09/19 08:43:07;;;;;;;1.00;0.65;;;14.20;99.90;;;;;;5032611;28;20035;-63
2022/09/19 08:46:13;;;;;;;1.50;0.70;;;14.30;99.90;;;;;;5042973;28;20021;-62
2022/09/19 08:48:52;;;;;;;1.70;0.80;;;14.40;99.90;;;;;;5032155;28;20026;-63
2022/09/19 08:51:31;;;;;;;2.17;0.90;;;14.60;99.90;;;;;;5048876;28;20052;-63
2022/09/19 08:54:14;;;;;;;2.25;0.70;;;14.70;99.90;;;;;;5032065;28;20053;-63
2022/09/19 08:56:43;;;;;;;2.78;0.57;;;14.80;99.90;;;;;;5031817;28;20037;-64
2022/09/19 08:59:16;;;;;;;2.85;0.70;;;15.00;99.90;;;;;;5069135;28;20033;-63
2022/09/19 09:01:42;;;;;;;1.38;0.60;;;15.40;99.90;;;;;;5071673;28;20032;-63
2022/09/19 09:04:14;;;;;;;0.70;0.70;;;15.70;99.90;;;;;;5050468;28;20030;-64
2022/09/19 09:07:01;;;;;;;1.08;0.70;;;16.00;96.20;;;;;;5071634;28;20108;-63
2022/09/19 09:09:33;;;;;;;0.90;0.57;;;16.20;91.00;;;;;;5035377;28;20030;-63
2022/09/19 09:12:14;;;;;;;4.00;0.65;;;16.40;94.90;;;;;;5071621;28;20024;-63
2022/09/19 09:14:43;;;;;;;2.13;0.65;;;16.50;95.60;;;;;;5038741;28;20029;-63
2022/09/19 09:17:18;;;;;;;0.55;0.50;;;16.70;93.60;;;;;;5071747;28;20025;-64
2022/09/19 09:20:39;;;;;;;0.82;0.63;;;16.90;94.30;;;;;;5039472;28;20062;-60
2022/09/19 09:23:15;;;;;;;1.58;0.70;;;17.00;89.00;;;;;;5030500;28;20096;-60
2022/09/19 09:25:48;;;;;;;0.30;0.30;;;17.10;91.00;;;;;;5046892;28;20040;-60
2022/09/19 09:28:34;;;;;;;0.88;0.45;;;17.30;91.40;;;;;;5043968;28;20089;-60
2022/09/19 09:31:13;;;;;;;;;;;17.30;88.10;;;;;;5045413;28;20047;-61
2022/09/19 09:33:52;;;;;;;1.65;0.65;;;17.30;77.40;;;;;;5071041;28;20272;-60
2022/09/19 09:36:23;;;;;;;1.40;0.85;;;17.50;76.40;;;;;;5046783;28;20036;-61
2022/09/19 09:39:01;;;;;;;3.13;0.57;;;17.60;84.10;;;;;;5031011;28;20497;-61
2022/09/19 09:41:45;;;;;;;1.00;0.60;;;17.70;84.60;;;;;;5047003;28;20392;-60
2022/09/19 09:44:13;;;;;;;2.47;0.47;;;17.60;74.30;;;;;;5031119;28;20068;-61
2022/09/19 09:46:56;;;;;;;1.45;0.45;;;17.60;85.00;;;;;;5031071;28;20569;-60
2022/09/19 09:49:22;;;;;;;1.15;0.60;;;17.70;84.90;;;;;;5031273;28;20084;-60
2022/09/19 09:52:17;;;;;;;2.35;0.75;;;17.90;81.70;;;;;;5070804;28;20028;-61
2022/09/19 09:58:15;;;;;;;1.05;0.50;;;18.30;75.20;;;;;;5070695;28;20044;-60
2022/09/19 10:03:49;;;;;;;0.60;0.50;;;18.70;78.60;;;;;;5030964;28;20092;-61
2022/09/19 10:06:38;;;;;;;2.97;0.60;;;18.90;63.40;;;;;;5044983;28;20501;-60
2022/09/19 10:09:22;;;;;;;0.57;0.45;;;19.00;62.20;;;;;;5030741;28;20025;-60
2022/09/19 10:12:15;;;;;;;1.10;0.40;;;19.10;67.40;;;;;;5030552;28;20029;-61
2022/09/19 10:14:43;;;;;;;0.30;0.30;;;19.20;56.10;;;;;;5034318;28;20039;-60
2022/09/19 10:17:08;;;;;;;2.40;0.57;;;19.20;65.70;;;;;;5070298;28;20056;-60
2022/09/19 10:19:44;;;;;;;1.00;0.20;;;19.20;64.80;;;;;;5050614;28;20063;-60
2022/09/19 10:22:14;;;;;;;;;;;19.10;58.00;;;;;;5070664;28;20512;-60
2022/09/19 10:24:45;;;;;;;1.33;0.45;;;18.90;52.20;;;;;;5047092;28;19978;-60
2022/09/19 10:27:15;;;;;;;0.35;0.32;;;18.90;60.50;;;;;;5070416;28;20086;-60
2022/09/19 10:29:59;;;;;;;0.63;0.40;;;18.90;62.50;;;;;;5033292;28;20028;-60
2022/09/19 10:32:39;;;;;;;1.02;0.50;;;19.00;57.70;;;;;;5070219;28;20028;-59
2022/09/19 10:35:28;;;;;;;0.20;0.20;;;19.10;55.70;;;;;;5042413;28;20183;-60
2022/09/19 10:37:59;;;;;;;0.68;0.40;;;19.00;52.60;;;;;;5030066;28;20037;-60
2022/09/19 10:40:26;;;;;;;0.73;0.38;;;18.90;55.10;;;;;;5066442;28;20055;-60
2022/09/19 10:42:54;;;;;;;1.30;0.52;;;18.70;50.90;;;;;;5050203;28;20497;-60
2022/09/19 10:45:25;;;;;;;0.20;0.20;;;18.50;56.20;;;;;;5067498;28;20252;-59
2022/09/19 10:48:00;;;;;;;0.88;0.38;;;18.40;57.20;;;;;;5069737;28;20027;-60
2022/09/19 10:50:26;;;;;;;0.50;0.30;;;18.10;56.70;;;;;;5044068;28;20024;-60
2022/09/19 10:53:00;;;;;;;0.30;0.25;;;17.90;59.00;;;;;;5049117;28;20048;-60
2022/09/19 10:55:27;;;;;;;0.45;0.30;;;17.60;58.80;;;;;;5043904;28;20025;-60
2022/09/19 10:57:59;;;;;;;0.20;0.10;;;17.40;58.50;;;;;;5050146;28;20029;-60
2022/09/19 11:00:44;;;;;;;1.20;0.30;;;17.20;61.10;;;;;;5043091;28;20028;-60
2022/09/19 11:03:26;;;;;;;0.47;0.30;;;16.90;62.20;;;;;;5029648;28;20037;-60
2022/09/19 11:06:04;;;;;;;2.13;0.32;;;16.70;63.70;;;;;;5050041;28;20084;-59
2022/09/19 11:08:30;;;;;;;1.33;0.30;;;16.60;69.10;;;;;;5049303;28;20508;-61
2022/09/19 11:10:57;;;;;;;1.60;0.30;;;16.50;72.40;;;;;;5055241;28;20032;-61
2022/09/19 11:13:22;;;;;;;0.40;0.40;;;16.40;74.90;;;;;;5069059;28;20032;-61
2022/09/19 11:16:41;;;;;;;1.98;0.40;;;16.30;77.80;;;;;;5058531;28;20396;-61
2022/09/19 11:19:31;;;;;;;0.65;0.45;;;16.20;79.00;;;;;;5030417;28;20039;-61
2022/09/19 11:22:09;;;;;;;0.40;0.40;;;16.20;79.90;;;;;;5065040;28;20021;-61
2022/09/19 11:24:40;;;;;;;1.20;0.30;;;16.40;81.40;;;;;;5027672;28;20040;-60
2022/09/19 11:27:39;;;;;;;0.22;0.20;;;16.50;78.80;;;;;;5069529;28;20060;-61
2022/09/19 11:30:20;;;;;;;0.82;0.40;;;16.50;75.40;;;;;;5035896;28;20021;-60
2022/09/19 11:32:56;;;;;;;0.40;0.28;;;16.60;79.60;;;;;;5069720;28;20021;-66
2022/09/19 11:35:29;;;;;;;0.85;0.38;;;16.60;80.70;;;;;;5040076;28;20112;-66
2022/09/19 11:38:22;;;;;;;1.05;0.40;;;16.50;82.40;;;;;;5069379;28;20530;-66
2022/09/19 11:41:08;;;;;;;0.90;0.30;;;16.50;84.50;;;;;;5037163;28;20029;-67
2022/09/19 11:43:33;;;;;;;;;;;16.50;84.50;;;;;;5029772;28;20091;-67
2022/09/19 11:46:20;;;;;;;0.70;0.30;;;16.30;86.80;;;;;;5054560;28;20537;-67
2022/09/19 11:49:07;;;;;;;1.48;0.40;;;16.30;85.60;;;;;;5069271;28;20067;-67
2022/09/19 11:51:56;;;;;;;;;;;16.10;85.50;;;;;;5040953;28;20074;-66
2022/09/19 11:54:44;;;;;;;1.08;0.28;;;16.00;88.80;;;;;;5045020;28;19987;-67
2022/09/19 11:57:45;;;;;;;0.65;0.38;;;15.90;90.10;;;;;;5027983;28;20508;-66
2022/09/19 12:00:25;;;;;;;0.68;0.40;;;15.70;90.30;;;;;;5065630;28;20029;-66
2022/09/19 12:03:06;;;;;;;0.90;0.50;;;15.70;90.40;;;;;;5067893;28;20029;-66
2022/09/19 12:06:03;;;;;;;0.63;0.32;;;15.60;90.70;;;;;;5055201;28;20024;-66
2022/09/19 12:08:43;;;;;;;1.25;0.35;;;15.60;91.30;;;;;;5032134;28;20342;-66
2022/09/19 12:11:18;;;;;;;0.40;0.40;;;15.60;92.10;;;;;;5053725;28;20035;-66
2022/09/19 12:13:53;;;;;;;0.93;0.52;;;15.50;91.70;;;;;;5047403;28;20033;-66
2022/09/19 12:16:23;;;;;;;;;;;15.60;92.30;;;;;;5043667;28;20037;-66
2022/09/19 12:19:00;;;;;;;0.95;0.40;;;15.60;95.90;;;;;;5071435;28;19909;-66
2022/09/19 12:21:34;;;;;;;0.70;0.30;;;15.60;93.70;;;;;;5043856;28;20032;-66
2022/09/19 12:27:12;;;;;;;0.70;0.30;;;15.60;94.10;;;;;;5047830;28;20032;-66
2022/09/19 12:29:53;;;;;;;1.85;0.50;;;15.60;93.80;;;;;;5031866;28;20021;-66
2022/09/19 12:32:30;;;;;;;1.55;0.43;;;15.60;94.50;;;;;;5031878;28;20030;-67
2022/09/19 12:35:23;;;;;;;0.73;0.38;;;15.50;95.50;;;;;;5045721;28;20052;-66
2022/09/19 12:38:08;;;;;;;5.75;0.80;;;15.40;97.60;;;;;;5062280;28;20041;-65
2022/09/19 12:40:55;;;;;;;1.58;0.60;;;15.20;99.90;;;;;;5041907;28;20510;-65
2022/09/19 12:43:49;;;;;;;3.97;0.38;;;14.50;96.60;;;;;;5071449;28;20082;-66
2022/09/19 12:46:38;;;;;;;1.23;0.52;;;13.90;97.90;;;;;;5052711;28;20044;-64
2022/09/19 12:49:37;;;;;;;1.02;0.35;;;13.60;98.00;;;;;;5031202;28;20033;-66
2022/09/19 12:52:19;;;;;;;1.08;0.20;;;13.40;96.30;;;;;;5048181;28;20021;-66
2022/09/19 12:54:54;;;;;;;1.38;0.20;;;13.20;96.40;;;;;;5031435;28;20513;-64
2022/09/19 12:57:36;;;;;;;0.60;0.20;;;13.20;96.80;;;;;;5031382;28;20037;-64
2022/09/19 13:00:03;;;;;;;5.85;2.60;;;13.10;97.50;;;;;;5031330;28;20569;-64
2022/09/19 13:02:36;;;;;;;1.30;1.20;;;13.00;99.20;;;;;;5070997;28;20050;-64
2022/09/19 13:05:22;;;;;;;1.02;0.90;;;13.00;99.90;;;;;;5049077;28;20029;-65
2022/09/19 13:07:53;;;;;;;1.65;0.80;;;12.90;99.90;;;;;;5050795;28;20070;-65
2022/09/19 13:10:37;;;;;;;2.05;0.90;;;12.90;99.90;;;;;;5035620;28;20620;-65
2022/09/19 13:13:19;;;;;;;0.90;0.77;;;12.90;99.90;;;;;;5070688;28;20108;-67
2022/09/19 13:15:55;;;;;;;0.50;0.47;;;13.00;99.90;;;;;;5041357;28;20033;-66
2022/09/19 13:23:59;;;;;;;0.40;0.40;;;13.10;99.90;;;;;;5049149;28;20042;-65
2022/09/19 13:26:35;;;;;;;0.50;0.50;;;13.00;99.90;;;;;;5049260;28;20021;-65
2022/09/19 13:29:29;;;;;;;2.80;0.50;;;13.00;99.90;;;;;;5030841;28;20454;-65
2022/09/19 13:32:09;;;;;;;0.60;0.50;;;13.00;99.90;;;;;;5041991;28;20037;-65
2022/09/19 13:35:00;;;;;;;3.42;0.45;;;12.90;99.90;;;;;;5041805;28;20040;-65
2022/09/19 13:37:25;;;;;;;1.13;0.65;;;12.90;99.90;;;;;;5030200;28;20029;-64
2022/09/19 13:40:15;;;;;;;0.63;0.63;;;12.90;99.90;;;;;;5068947;28;20029;-66
2022/09/19 13:43:03;;;;;;;1.95;0.98;;;12.90;99.90;;;;;;5070376;28;20021;-66
2022/09/19 13:45:34;;;;;;;2.17;0.63;;;12.90;99.90;;;;;;5052028;28;20025;-66